sensor_id;sensor_type;location;lat;lon;timestamp;temperature;humidity
55211;DHT22;41082;52.822;6.666;2024-03-02T00:01:41;7.40;99.90
55211;DHT22;41082;52.822;6.666;2024-03-02T00:04:07;7.40;99.90
55211;DHT22;41082;52.822;6.666;2024-03-02T00:06:33;7.40;99.90
55211;DHT22;41082;52.822;6.666;2024-03-02T00:08:59;7.40;99.90
55211;DHT22;41082;52.822;6.666;2024-03-02T00:11:24;7.50;99.90
55211;DHT22;41082;52.822;6.666;2024-03-02T00:13:53;7.50;99.90
55211;DHT22;41082;52.822;6.666;2024-03-02T00:16:19;7.50;99.90
55211;DHT22;41082;52.822;6.666;2024-03-02T00:18:45;7.50;99.90
55211;DHT22;41082;52.822;6.666;2024-03-02T00:21:11;7.50;99.90
55211;DHT22;41082;52.822;6.666;2024-03-02T00:23:38;7.50;99.90
55211;DHT22;41082;52.822;6.666;2024-03-02T00:26:05;7.40;99.90
55211;DHT22;41082;52.822;6.666;2024-03-02T00:28:35;7.50;99.90
55211;DHT22;41082;52.822;6.666;2024-03-02T00:31:06;7.50;99.90
55211;DHT22;41082;52.822;6.666;2024-03-02T00:33:36;7.50;99.90
55211;DHT22;41082;52.822;6.666;2024-03-02T00:36:03;7.50;99.90
55211;DHT22;41082;52.822;6.666;2024-03-02T00:38:32;7.50;99.90
55211;DHT22;41082;52.822;6.666;2024-03-02T00:41:00;7.50;99.90
55211;DHT22;41082;52.822;6.666;2024-03-02T00:46:07;7.60;99.90
55211;DHT22;41082;52.822;6.666;2024-03-02T00:48:33;7.60;99.90
55211;DHT22;41082;52.822;6.666;2024-03-02T00:51:01;7.50;99.90
55211;DHT22;41082;52.822;6.666;2024-03-02T00:53:29;7.60;99.90
55211;DHT22;41082;52.822;6.666;2024-03-02T00:55:55;7.60;99.90
55211;DHT22;41082;52.822;6.666;2024-03-02T00:58:21;7.60;99.90
55211;DHT22;41082;52.822;6.666;2024-03-02T01:00:46;7.60;99.90
55211;DHT22;41082;52.822;6.666;2024-03-02T01:03:12;7.60;99.90
55211;DHT22;41082;52.822;6.666;2024-03-02T01:05:42;7.60;99.90
55211;DHT22;41082;52.822;6.666;2024-03-02T01:08:08;7.60;99.90
55211;DHT22;41082;52.822;6.666;2024-03-02T01:10:34;7.60;99.90
55211;DHT22;41082;52.822;6.666;2024-03-02T01:13:00;7.60;99.90
55211;DHT22;41082;52.822;6.666;2024-03-02T01:15:25;7.60;99.90
55211;DHT22;41082;52.822;6.666;2024-03-02T01:17:51;7.60;99.90
55211;DHT22;41082;52.822;6.666;2024-03-02T01:20:17;7.60;99.90
55211;DHT22;41082;52.822;6.666;2024-03-02T01:22:42;7.60;99.90
55211;DHT22;41082;52.822;6.666;2024-03-02T01:25:09;7.60;99.90
55211;DHT22;41082;52.822;6.666;2024-03-02T01:27:34;7.60;99.90
55211;DHT22;41082;52.822;6.666;2024-03-02T01:30:00;7.60;99.90
55211;DHT22;41082;52.822;6.666;2024-03-02T01:32:25;7.60;99.90
55211;DHT22;41082;52.822;6.666;2024-03-02T01:34:51;7.60;99.90
55211;DHT22;41082;52.822;6.666;2024-03-02T01:37:17;7.60;99.90
55211;DHT22;41082;52.822;6.666;2024-03-02T01:39:42;7.60;99.90
55211;DHT22;41082;52.822;6.666;2024-03-02T01:42:08;7.60;99.90
55211;DHT22;41082;52.822;6.666;2024-03-02T01:44:33;7.60;99.90
55211;DHT22;41082;52.822;6.666;2024-03-02T01:46:59;7.60;99.90
55211;DHT22;41082;52.822;6.666;2024-03-02T01:49:24;7.60;99.90
55211;DHT22;41082;52.822;6.666;2024-03-02T01:51:50;7.60;99.90
55211;DHT22;41082;52.822;6.666;2024-03-02T01:54:16;7.60;99.90
55211;DHT22;41082;52.822;6.666;2024-03-02T01:56:42;7.60;99.90
55211;DHT22;41082;52.822;6.666;2024-03-02T01:59:08;7.60;99.90
55211;DHT22;41082;52.822;6.666;2024-03-02T02:01:33;7.60;99.90
55211;DHT22;41082;52.822;6.666;2024-03-02T02:03:59;7.60;99.90
55211;DHT22;41082;52.822;6.666;2024-03-02T02:06:24;7.60;99.90
55211;DHT22;41082;52.822;6.666;2024-03-02T02:08:50;7.60;99.90
55211;DHT22;41082;52.822;6.666;2024-03-02T02:11:16;7.60;99.90
55211;DHT22;41082;52.822;6.666;2024-03-02T02:13:42;7.60;99.90
55211;DHT22;41082;52.822;6.666;2024-03-02T02:16:08;7.60;99.90
55211;DHT22;41082;52.822;6.666;2024-03-02T02:18:34;7.60;99.90
55211;DHT22;41082;52.822;6.666;2024-03-02T02:21:01;7.60;99.90
55211;DHT22;41082;52.822;6.666;2024-03-02T02:23:27;7.60;99.90
55211;DHT22;41082;52.822;6.666;2024-03-02T02:25:53;7.60;99.90
55211;DHT22;41082;52.822;6.666;2024-03-02T02:28:20;7.60;99.90
55211;DHT22;41082;52.822;6.666;2024-03-02T02:30:45;7.60;99.90
55211;DHT22;41082;52.822;6.666;2024-03-02T02:33:11;7.60;99.90
55211;DHT22;41082;52.822;6.666;2024-03-02T02:35:37;7.60;99.90
55211;DHT22;41082;52.822;6.666;2024-03-02T02:38:03;7.60;99.90
55211;DHT22;41082;52.822;6.666;2024-03-02T02:40:29;7.70;99.90
55211;DHT22;41082;52.822;6.666;2024-03-02T02:42:56;7.70;99.90
55211;DHT22;41082;52.822;6.666;2024-03-02T02:45:22;7.70;99.90
55211;DHT22;41082;52.822;6.666;2024-03-02T02:47:47;7.70;99.90
55211;DHT22;41082;52.822;6.666;2024-03-02T02:50:13;7.70;99.90
55211;DHT22;41082;52.822;6.666;2024-03-02T02:52:40;7.70;99.90
55211;DHT22;41082;52.822;6.666;2024-03-02T02:55:08;7.80;99.90
55211;DHT22;41082;52.822;6.666;2024-03-02T02:57:34;7.80;99.90
55211;DHT22;41082;52.822;6.666;2024-03-02T03:00:12;7.80;99.90
55211;DHT22;41082;52.822;6.666;2024-03-02T03:02:44;7.80;99.90
55211;DHT22;41082;52.822;6.666;2024-03-02T03:05:11;7.80;99.90
55211;DHT22;41082;52.822;6.666;2024-03-02T03:07:39;7.80;99.90
55211;DHT22;41082;52.822;6.666;2024-03-02T03:10:05;7.80;99.90
55211;DHT22;41082;52.822;6.666;2024-03-02T03:12:32;7.90;99.90
55211;DHT22;41082;52.822;6.666;2024-03-02T03:14:58;7.90;99.90
55211;DHT22;41082;52.822;6.666;2024-03-02T03:17:24;7.90;99.90
55211;DHT22;41082;52.822;6.666;2024-03-02T03:19:50;7.90;99.90
55211;DHT22;41082;52.822;6.666;2024-03-02T03:22:16;7.90;99.90
55211;DHT22;41082;52.822;6.666;2024-03-02T03:24:42;7.90;99.90
55211;DHT22;41082;52.822;6.666;2024-03-02T03:27:07;7.90;99.90
55211;DHT22;41082;52.822;6.666;2024-03-02T03:29:33;7.90;99.90
55211;DHT22;41082;52.822;6.666;2024-03-02T03:31:58;8.00;99.90
55211;DHT22;41082;52.822;6.666;2024-03-02T03:34:24;8.00;99.90
55211;DHT22;41082;52.822;6.666;2024-03-02T03:36:50;7.90;99.90
55211;DHT22;41082;52.822;6.666;2024-03-02T03:39:15;7.90;99.90
55211;DHT22;41082;52.822;6.666;2024-03-02T03:41:41;7.90;99.90
55211;DHT22;41082;52.822;6.666;2024-03-02T03:44:06;8.00;99.90
55211;DHT22;41082;52.822;6.666;2024-03-02T03:46:32;8.00;99.90
55211;DHT22;41082;52.822;6.666;2024-03-02T03:48:58;8.00;99.90
55211;DHT22;41082;52.822;6.666;2024-03-02T03:51:23;8.00;99.90
55211;DHT22;41082;52.822;6.666;2024-03-02T03:53:49;8.00;99.90
55211;DHT22;41082;52.822;6.666;2024-03-02T03:56:14;8.00;99.90
55211;DHT22;41082;52.822;6.666;2024-03-02T03:58:40;8.00;99.90
55211;DHT22;41082;52.822;6.666;2024-03-02T04:01:05;8.00;99.90
55211;DHT22;41082;52.822;6.666;2024-03-02T04:03:31;8.00;99.90
55211;DHT22;41082;52.822;6.666;2024-03-02T04:05:57;8.00;99.90
55211;DHT22;41082;52.822;6.666;2024-03-02T04:08:22;8.00;99.90
55211;DHT22;41082;52.822;6.666;2024-03-02T04:10:48;8.00;99.90
55211;DHT22;41082;52.822;6.666;2024-03-02T04:13:13;8.00;99.90
55211;DHT22;41082;52.822;6.666;2024-03-02T04:15:40;8.00;99.90
55211;DHT22;41082;52.822;6.666;2024-03-02T04:18:06;8.00;99.90
55211;DHT22;41082;52.822;6.666;2024-03-02T04:20:32;8.00;99.90
55211;DHT22;41082;52.822;6.666;2024-03-02T04:22:57;8.00;99.90
55211;DHT22;41082;52.822;6.666;2024-03-02T04:25:23;8.00;99.90
55211;DHT22;41082;52.822;6.666;2024-03-02T04:27:49;8.00;99.90
55211;DHT22;41082;52.822;6.666;2024-03-02T04:30:14;8.00;99.90
55211;DHT22;41082;52.822;6.666;2024-03-02T04:32:40;8.00;99.90
55211;DHT22;41082;52.822;6.666;2024-03-02T04:35:06;8.00;99.90
55211;DHT22;41082;52.822;6.666;2024-03-02T04:37:34;8.00;99.90
55211;DHT22;41082;52.822;6.666;2024-03-02T04:40:00;8.00;99.90
55211;DHT22;41082;52.822;6.666;2024-03-02T04:42:25;8.00;99.90
55211;DHT22;41082;52.822;6.666;2024-03-02T04:44:51;8.00;99.90
55211;DHT22;41082;52.822;6.666;2024-03-02T04:47:17;8.00;99.90
55211;DHT22;41082;52.822;6.666;2024-03-02T04:49:42;8.00;99.90
55211;DHT22;41082;52.822;6.666;2024-03-02T04:52:09;8.00;99.90
55211;DHT22;41082;52.822;6.666;2024-03-02T04:54:35;8.00;99.90
55211;DHT22;41082;52.822;6.666;2024-03-02T04:57:23;8.00;99.90
55211;DHT22;41082;52.822;6.666;2024-03-02T05:18:15;7.90;99.90
55211;DHT22;41082;52.822;6.666;2024-03-02T05:20:40;7.90;99.90
55211;DHT22;41082;52.822;6.666;2024-03-02T05:23:06;7.90;99.90
55211;DHT22;41082;52.822;6.666;2024-03-02T05:25:31;7.90;99.90
55211;DHT22;41082;52.822;6.666;2024-03-02T05:27:57;7.90;99.90
55211;DHT22;41082;52.822;6.666;2024-03-02T05:30:23;7.80;99.90
55211;DHT22;41082;52.822;6.666;2024-03-02T05:32:50;7.80;99.90
55211;DHT22;41082;52.822;6.666;2024-03-02T05:35:15;7.80;99.90
55211;DHT22;41082;52.822;6.666;2024-03-02T05:37:41;7.80;99.90
55211;DHT22;41082;52.822;6.666;2024-03-02T05:40:07;7.80;99.90
55211;DHT22;41082;52.822;6.666;2024-03-02T05:42:33;7.80;99.90
55211;DHT22;41082;52.822;6.666;2024-03-02T05:44:58;7.80;99.90
55211;DHT22;41082;52.822;6.666;2024-03-02T05:47:24;7.80;99.90
55211;DHT22;41082;52.822;6.666;2024-03-02T05:49:49;7.80;99.90
55211;DHT22;41082;52.822;6.666;2024-03-02T05:52:15;7.80;99.90
55211;DHT22;41082;52.822;6.666;2024-03-02T05:54:41;7.80;99.90
55211;DHT22;41082;52.822;6.666;2024-03-02T05:57:06;7.80;99.90
55211;DHT22;41082;52.822;6.666;2024-03-02T05:59:50;7.80;99.90
55211;DHT22;41082;52.822;6.666;2024-03-02T06:02:16;7.70;99.90
55211;DHT22;41082;52.822;6.666;2024-03-02T06:04:42;7.70;99.90
55211;DHT22;41082;52.822;6.666;2024-03-02T06:07:07;7.70;99.90
55211;DHT22;41082;52.822;6.666;2024-03-02T06:09:33;7.70;99.90
55211;DHT22;41082;52.822;6.666;2024-03-02T06:11:58;7.60;99.90
55211;DHT22;41082;52.822;6.666;2024-03-02T06:14:24;7.60;99.90
55211;DHT22;41082;52.822;6.666;2024-03-02T06:16:50;7.60;99.90
55211;DHT22;41082;52.822;6.666;2024-03-02T06:19:15;7.60;99.90
55211;DHT22;41082;52.822;6.666;2024-03-02T06:21:41;7.60;99.90
55211;DHT22;41082;52.822;6.666;2024-03-02T06:24:06;7.60;99.90
55211;DHT22;41082;52.822;6.666;2024-03-02T06:26:32;7.50;99.90
55211;DHT22;41082;52.822;6.666;2024-03-02T06:28:58;7.50;99.90
55211;DHT22;41082;52.822;6.666;2024-03-02T06:31:23;7.50;99.90
55211;DHT22;41082;52.822;6.666;2024-03-02T06:33:49;7.50;99.90
55211;DHT22;41082;52.822;6.666;2024-03-02T06:36:14;7.50;99.90
55211;DHT22;41082;52.822;6.666;2024-03-02T06:38:41;7.40;99.90
55211;DHT22;41082;52.822;6.666;2024-03-02T06:41:06;7.40;99.90
55211;DHT22;41082;52.822;6.666;2024-03-02T06:43:32;7.40;99.90
55211;DHT22;41082;52.822;6.666;2024-03-02T06:45:57;7.30;99.90
55211;DHT22;41082;52.822;6.666;2024-03-02T06:48:23;7.40;99.90
55211;DHT22;41082;52.822;6.666;2024-03-02T06:50:50;7.40;99.90
55211;DHT22;41082;52.822;6.666;2024-03-02T06:53:17;7.40;99.90
55211;DHT22;41082;52.822;6.666;2024-03-02T06:55:46;7.40;99.90
55211;DHT22;41082;52.822;6.666;2024-03-02T06:58:13;7.50;99.90
55211;DHT22;41082;52.822;6.666;2024-03-02T07:00:40;7.40;99.90
55211;DHT22;41082;52.822;6.666;2024-03-02T07:03:06;7.40;99.90
55211;DHT22;41082;52.822;6.666;2024-03-02T07:05:32;7.50;99.90
55211;DHT22;41082;52.822;6.666;2024-03-02T07:07:58;7.40;99.90
55211;DHT22;41082;52.822;6.666;2024-03-02T07:10:23;7.40;99.90
55211;DHT22;41082;52.822;6.666;2024-03-02T07:12:49;7.40;99.90
55211;DHT22;41082;52.822;6.666;2024-03-02T07:15:15;7.40;99.90
55211;DHT22;41082;52.822;6.666;2024-03-02T07:18:04;7.40;99.90
55211;DHT22;41082;52.822;6.666;2024-03-02T07:20:30;7.50;99.90
55211;DHT22;41082;52.822;6.666;2024-03-02T07:22:55;7.50;99.90
55211;DHT22;41082;52.822;6.666;2024-03-02T07:25:21;7.50;99.90
55211;DHT22;41082;52.822;6.666;2024-03-02T07:27:47;7.50;99.90
55211;DHT22;41082;52.822;6.666;2024-03-02T07:30:16;7.60;99.90
55211;DHT22;41082;52.822;6.666;2024-03-02T07:32:42;7.70;99.90
55211;DHT22;41082;52.822;6.666;2024-03-02T07:35:11;7.70;99.90
55211;DHT22;41082;52.822;6.666;2024-03-02T07:37:37;7.70;99.90
55211;DHT22;41082;52.822;6.666;2024-03-02T07:40:03;7.70;99.90
55211;DHT22;41082;52.822;6.666;2024-03-02T07:42:29;7.70;99.90
55211;DHT22;41082;52.822;6.666;2024-03-02T07:44:54;7.70;99.90
55211;DHT22;41082;52.822;6.666;2024-03-02T07:47:20;7.70;99.90
55211;DHT22;41082;52.822;6.666;2024-03-02T07:49:46;7.70;99.90
55211;DHT22;41082;52.822;6.666;2024-03-02T07:52:12;7.70;99.90
55211;DHT22;41082;52.822;6.666;2024-03-02T07:54:37;7.70;99.90
55211;DHT22;41082;52.822;6.666;2024-03-02T07:57:03;7.70;99.90
55211;DHT22;41082;52.822;6.666;2024-03-02T07:59:29;7.70;99.90
55211;DHT22;41082;52.822;6.666;2024-03-02T08:01:55;7.70;99.90
55211;DHT22;41082;52.822;6.666;2024-03-02T08:04:20;7.70;99.90
55211;DHT22;41082;52.822;6.666;2024-03-02T08:06:46;7.70;99.90
55211;DHT22;41082;52.822;6.666;2024-03-02T08:09:12;7.80;99.90
55211;DHT22;41082;52.822;6.666;2024-03-02T08:11:38;7.70;99.90
55211;DHT22;41082;52.822;6.666;2024-03-02T08:14:04;7.70;99.90
55211;DHT22;41082;52.822;6.666;2024-03-02T08:16:30;7.80;99.90
55211;DHT22;41082;52.822;6.666;2024-03-02T08:18:55;7.80;99.90
55211;DHT22;41082;52.822;6.666;2024-03-02T08:21:23;7.80;99.90
55211;DHT22;41082;52.822;6.666;2024-03-02T08:23:49;7.80;99.90
55211;DHT22;41082;52.822;6.666;2024-03-02T08:26:15;7.90;99.90
55211;DHT22;41082;52.822;6.666;2024-03-02T08:28:41;8.00;99.90
55211;DHT22;41082;52.822;6.666;2024-03-02T08:31:07;8.00;99.90
55211;DHT22;41082;52.822;6.666;2024-03-02T08:33:33;8.10;99.90
55211;DHT22;41082;52.822;6.666;2024-03-02T08:35:59;8.20;99.90
55211;DHT22;41082;52.822;6.666;2024-03-02T08:38:26;8.30;99.90
55211;DHT22;41082;52.822;6.666;2024-03-02T08:40:51;8.40;99.90
55211;DHT22;41082;52.822;6.666;2024-03-02T08:43:17;8.50;99.90
55211;DHT22;41082;52.822;6.666;2024-03-02T08:45:43;8.50;99.90
55211;DHT22;41082;52.822;6.666;2024-03-02T08:48:09;8.60;99.90
55211;DHT22;41082;52.822;6.666;2024-03-02T08:50:35;8.60;99.90
55211;DHT22;41082;52.822;6.666;2024-03-02T08:53:01;8.80;99.90
55211;DHT22;41082;52.822;6.666;2024-03-02T08:55:27;8.80;99.90
55211;DHT22;41082;52.822;6.666;2024-03-02T08:57:53;8.90;99.90
55211;DHT22;41082;52.822;6.666;2024-03-02T09:00:19;8.90;99.90
55211;DHT22;41082;52.822;6.666;2024-03-02T09:02:45;9.00;99.90
55211;DHT22;41082;52.822;6.666;2024-03-02T09:05:11;9.10;99.90
55211;DHT22;41082;52.822;6.666;2024-03-02T09:07:36;9.20;99.90
55211;DHT22;41082;52.822;6.666;2024-03-02T09:10:07;9.30;99.90
55211;DHT22;41082;52.822;6.666;2024-03-02T09:12:33;9.30;99.90
55211;DHT22;41082;52.822;6.666;2024-03-02T09:15:00;9.40;99.90
55211;DHT22;41082;52.822;6.666;2024-03-02T09:17:26;9.60;99.90
55211;DHT22;41082;52.822;6.666;2024-03-02T09:19:52;9.60;99.90
55211;DHT22;41082;52.822;6.666;2024-03-02T09:22:19;9.70;99.90
55211;DHT22;41082;52.822;6.666;2024-03-02T09:24:44;9.80;99.90
55211;DHT22;41082;52.822;6.666;2024-03-02T09:27:10;9.90;99.90
55211;DHT22;41082;52.822;6.666;2024-03-02T09:29:36;9.90;99.90
55211;DHT22;41082;52.822;6.666;2024-03-02T09:32:02;9.90;99.90
55211;DHT22;41082;52.822;6.666;2024-03-02T09:34:27;10.00;99.90
55211;DHT22;41082;52.822;6.666;2024-03-02T09:36:53;10.00;99.90
55211;DHT22;41082;52.822;6.666;2024-03-02T09:39:19;10.10;99.90
55211;DHT22;41082;52.822;6.666;2024-03-02T09:41:44;10.20;99.90
55211;DHT22;41082;52.822;6.666;2024-03-02T09:44:10;10.30;99.90
55211;DHT22;41082;52.822;6.666;2024-03-02T09:46:36;10.40;99.90
55211;DHT22;41082;52.822;6.666;2024-03-02T09:49:02;10.40;99.90
55211;DHT22;41082;52.822;6.666;2024-03-02T09:51:28;10.50;99.90
55211;DHT22;41082;52.822;6.666;2024-03-02T09:53:55;10.50;99.90
55211;DHT22;41082;52.822;6.666;2024-03-02T09:56:21;10.60;99.90
55211;DHT22;41082;52.822;6.666;2024-03-02T09:58:47;10.60;99.90
55211;DHT22;41082;52.822;6.666;2024-03-02T10:01:12;10.60;99.90
55211;DHT22;41082;52.822;6.666;2024-03-02T10:03:38;10.70;99.90
55211;DHT22;41082;52.822;6.666;2024-03-02T10:06:24;10.70;99.90
55211;DHT22;41082;52.822;6.666;2024-03-02T10:08:50;10.80;99.90
55211;DHT22;41082;52.822;6.666;2024-03-02T10:14:07;10.80;99.90
55211;DHT22;41082;52.822;6.666;2024-03-02T10:16:37;10.90;99.90
55211;DHT22;41082;52.822;6.666;2024-03-02T10:24:15;11.10;99.90
55211;DHT22;41082;52.822;6.666;2024-03-02T10:26:40;11.20;99.90
55211;DHT22;41082;52.822;6.666;2024-03-02T10:29:08;11.20;99.90
55211;DHT22;41082;52.822;6.666;2024-03-02T10:31:34;11.30;99.90
55211;DHT22;41082;52.822;6.666;2024-03-02T10:34:00;11.30;99.90
55211;DHT22;41082;52.822;6.666;2024-03-02T10:36:28;11.40;99.90
55211;DHT22;41082;52.822;6.666;2024-03-02T10:38:56;11.50;99.90
55211;DHT22;41082;52.822;6.666;2024-03-02T10:41:26;11.50;99.90
55211;DHT22;41082;52.822;6.666;2024-03-02T10:43:53;11.60;99.90
55211;DHT22;41082;52.822;6.666;2024-03-02T10:46:27;11.60;99.90
55211;DHT22;41082;52.822;6.666;2024-03-02T10:48:55;11.70;99.90
55211;DHT22;41082;52.822;6.666;2024-03-02T10:51:20;11.70;99.90
55211;DHT22;41082;52.822;6.666;2024-03-02T10:53:46;11.80;99.90
55211;DHT22;41082;52.822;6.666;2024-03-02T10:56:16;11.80;99.90
55211;DHT22;41082;52.822;6.666;2024-03-02T10:58:51;11.80;99.90
55211;DHT22;41082;52.822;6.666;2024-03-02T11:01:20;11.80;99.90
55211;DHT22;41082;52.822;6.666;2024-03-02T11:03:47;11.80;99.90
55211;DHT22;41082;52.822;6.666;2024-03-02T11:06:13;11.90;99.90
55211;DHT22;41082;52.822;6.666;2024-03-02T11:08:40;11.90;99.90
55211;DHT22;41082;52.822;6.666;2024-03-02T11:11:08;12.00;99.90
55211;DHT22;41082;52.822;6.666;2024-03-02T11:13:37;12.00;99.90
55211;DHT22;41082;52.822;6.666;2024-03-02T11:16:15;12.00;99.90
55211;DHT22;41082;52.822;6.666;2024-03-02T11:18:44;11.90;99.90
55211;DHT22;41082;52.822;6.666;2024-03-02T11:21:10;11.90;99.90
55211;DHT22;41082;52.822;6.666;2024-03-02T11:23:37;11.90;99.90
55211;DHT22;41082;52.822;6.666;2024-03-02T11:26:21;11.90;99.90
55211;DHT22;41082;52.822;6.666;2024-03-02T11:28:48;12.00;99.90
55211;DHT22;41082;52.822;6.666;2024-03-02T11:31:14;12.00;99.90
55211;DHT22;41082;52.822;6.666;2024-03-02T11:33:39;12.00;99.90
55211;DHT22;41082;52.822;6.666;2024-03-02T11:36:09;11.90;99.90
55211;DHT22;41082;52.822;6.666;2024-03-02T11:38:35;11.80;99.90
55211;DHT22;41082;52.822;6.666;2024-03-02T11:41:07;11.90;99.90
55211;DHT22;41082;52.822;6.666;2024-03-02T11:43:40;11.90;99.90
55211;DHT22;41082;52.822;6.666;2024-03-02T11:46:06;11.80;99.90
55211;DHT22;41082;52.822;6.666;2024-03-02T11:48:39;11.90;99.90
55211;DHT22;41082;52.822;6.666;2024-03-02T11:51:05;11.90;99.90
55211;DHT22;41082;52.822;6.666;2024-03-02T11:53:31;11.90;99.90
55211;DHT22;41082;52.822;6.666;2024-03-02T11:55:59;11.90;99.90
55211;DHT22;41082;52.822;6.666;2024-03-02T11:58:27;11.90;99.90
55211;DHT22;41082;52.822;6.666;2024-03-02T12:00:54;11.90;99.90
55211;DHT22;41082;52.822;6.666;2024-03-02T12:03:22;12.00;99.90
55211;DHT22;41082;52.822;6.666;2024-03-02T12:05:49;12.00;99.90
55211;DHT22;41082;52.822;6.666;2024-03-02T12:08:15;12.00;99.90
55211;DHT22;41082;52.822;6.666;2024-03-02T12:10:41;12.10;99.90
55211;DHT22;41082;52.822;6.666;2024-03-02T12:13:07;12.10;99.90
55211;DHT22;41082;52.822;6.666;2024-03-02T12:15:36;12.10;99.90
55211;DHT22;41082;52.822;6.666;2024-03-02T12:18:02;12.10;99.90
55211;DHT22;41082;52.822;6.666;2024-03-02T12:20:30;12.10;99.90
55211;DHT22;41082;52.822;6.666;2024-03-02T12:22:58;12.10;99.90
55211;DHT22;41082;52.822;6.666;2024-03-02T12:25:25;12.20;99.90
55211;DHT22;41082;52.822;6.666;2024-03-02T12:27:57;12.30;99.90
55211;DHT22;41082;52.822;6.666;2024-03-02T12:30:23;12.40;99.90
55211;DHT22;41082;52.822;6.666;2024-03-02T12:32:49;12.40;99.90
55211;DHT22;41082;52.822;6.666;2024-03-02T12:35:15;12.40;99.90
55211;DHT22;41082;52.822;6.666;2024-03-02T12:37:45;12.50;99.90
55211;DHT22;41082;52.822;6.666;2024-03-02T12:40:12;12.50;99.90
55211;DHT22;41082;52.822;6.666;2024-03-02T12:42:39;12.50;99.90
55211;DHT22;41082;52.822;6.666;2024-03-02T12:45:06;12.50;99.90
55211;DHT22;41082;52.822;6.666;2024-03-02T12:47:33;12.60;99.90
55211;DHT22;41082;52.822;6.666;2024-03-02T12:49:59;12.60;99.90
55211;DHT22;41082;52.822;6.666;2024-03-02T12:52:25;12.60;99.90
55211;DHT22;41082;52.822;6.666;2024-03-02T12:54:51;12.60;99.90
55211;DHT22;41082;52.822;6.666;2024-03-02T12:57:20;12.60;99.90
55211;DHT22;41082;52.822;6.666;2024-03-02T12:59:47;12.60;99.90
55211;DHT22;41082;52.822;6.666;2024-03-02T13:02:18;12.60;99.90
55211;DHT22;41082;52.822;6.666;2024-03-02T13:04:44;12.60;99.90
55211;DHT22;41082;52.822;6.666;2024-03-02T13:07:11;12.60;99.90
55211;DHT22;41082;52.822;6.666;2024-03-02T13:09:39;12.70;99.90
55211;DHT22;41082;52.822;6.666;2024-03-02T13:12:05;12.80;99.90
55211;DHT22;41082;52.822;6.666;2024-03-02T13:14:35;12.80;99.90
55211;DHT22;41082;52.822;6.666;2024-03-02T13:17:01;12.80;99.90
55211;DHT22;41082;52.822;6.666;2024-03-02T13:19:29;12.90;99.90
55211;DHT22;41082;52.822;6.666;2024-03-02T13:21:56;13.00;99.90
55211;DHT22;41082;52.822;6.666;2024-03-02T13:24:22;13.00;99.90
55211;DHT22;41082;52.822;6.666;2024-03-02T13:26:51;13.00;99.90
55211;DHT22;41082;52.822;6.666;2024-03-02T13:29:21;13.10;99.90
55211;DHT22;41082;52.822;6.666;2024-03-02T13:31:47;13.10;99.90
55211;DHT22;41082;52.822;6.666;2024-03-02T13:34:12;13.10;99.90
55211;DHT22;41082;52.822;6.666;2024-03-02T13:36:38;13.10;99.90
55211;DHT22;41082;52.822;6.666;2024-03-02T13:39:04;13.20;99.90
55211;DHT22;41082;52.822;6.666;2024-03-02T13:41:32;13.20;99.90
55211;DHT22;41082;52.822;6.666;2024-03-02T13:43:58;13.20;99.90
55211;DHT22;41082;52.822;6.666;2024-03-02T13:46:26;13.20;99.90
55211;DHT22;41082;52.822;6.666;2024-03-02T13:48:53;13.20;99.90
55211;DHT22;41082;52.822;6.666;2024-03-02T13:51:19;13.10;99.90
55211;DHT22;41082;52.822;6.666;2024-03-02T13:53:45;13.00;99.90
55211;DHT22;41082;52.822;6.666;2024-03-02T13:56:11;13.10;99.90
55211;DHT22;41082;52.822;6.666;2024-03-02T13:58:37;13.10;99.90
55211;DHT22;41082;52.822;6.666;2024-03-02T14:01:03;13.00;99.90
55211;DHT22;41082;52.822;6.666;2024-03-02T14:03:30;13.10;99.90
55211;DHT22;41082;52.822;6.666;2024-03-02T14:05:56;13.10;99.90
55211;DHT22;41082;52.822;6.666;2024-03-02T14:08:23;13.10;99.90
55211;DHT22;41082;52.822;6.666;2024-03-02T14:10:48;13.10;99.90
55211;DHT22;41082;52.822;6.666;2024-03-02T14:13:14;13.10;99.90
55211;DHT22;41082;52.822;6.666;2024-03-02T14:15:41;13.10;99.90
55211;DHT22;41082;52.822;6.666;2024-03-02T14:18:07;13.10;99.90
55211;DHT22;41082;52.822;6.666;2024-03-02T14:20:35;13.20;99.90
55211;DHT22;41082;52.822;6.666;2024-03-02T14:23:01;13.20;99.90
55211;DHT22;41082;52.822;6.666;2024-03-02T14:25:28;13.20;99.90
55211;DHT22;41082;52.822;6.666;2024-03-02T14:27:57;13.20;99.90
55211;DHT22;41082;52.822;6.666;2024-03-02T14:30:23;13.20;99.90
55211;DHT22;41082;52.822;6.666;2024-03-02T14:32:49;13.20;99.90
55211;DHT22;41082;52.822;6.666;2024-03-02T14:35:14;13.30;99.90
55211;DHT22;41082;52.822;6.666;2024-03-02T14:37:40;13.30;99.90
55211;DHT22;41082;52.822;6.666;2024-03-02T14:40:07;13.40;99.90
55211;DHT22;41082;52.822;6.666;2024-03-02T14:42:35;13.30;99.90
55211;DHT22;41082;52.822;6.666;2024-03-02T14:45:00;13.40;99.90
55211;DHT22;41082;52.822;6.666;2024-03-02T14:47:28;13.40;99.90
55211;DHT22;41082;52.822;6.666;2024-03-02T14:49:54;13.40;99.90
55211;DHT22;41082;52.822;6.666;2024-03-02T14:52:19;13.30;99.90
55211;DHT22;41082;52.822;6.666;2024-03-02T14:54:45;13.40;99.90
55211;DHT22;41082;52.822;6.666;2024-03-02T14:57:10;13.30;99.90
55211;DHT22;41082;52.822;6.666;2024-03-02T14:59:36;13.30;99.90
55211;DHT22;41082;52.822;6.666;2024-03-02T15:02:03;13.30;99.90
55211;DHT22;41082;52.822;6.666;2024-03-02T15:04:28;13.20;99.90
55211;DHT22;41082;52.822;6.666;2024-03-02T15:06:54;13.20;99.90
55211;DHT22;41082;52.822;6.666;2024-03-02T15:09:19;13.20;99.90
55211;DHT22;41082;52.822;6.666;2024-03-02T15:11:45;13.10;99.90
55211;DHT22;41082;52.822;6.666;2024-03-02T15:14:11;13.10;99.90
55211;DHT22;41082;52.822;6.666;2024-03-02T15:16:37;13.00;99.90
55211;DHT22;41082;52.822;6.666;2024-03-02T15:19:03;13.00;99.90
55211;DHT22;41082;52.822;6.666;2024-03-02T15:21:28;12.90;99.90
55211;DHT22;41082;52.822;6.666;2024-03-02T15:23:54;12.90;99.90
55211;DHT22;41082;52.822;6.666;2024-03-02T15:26:19;12.80;99.90
55211;DHT22;41082;52.822;6.666;2024-03-02T15:28:45;12.80;99.90
55211;DHT22;41082;52.822;6.666;2024-03-02T15:31:11;12.70;99.90
55211;DHT22;41082;52.822;6.666;2024-03-02T15:33:36;12.70;99.90
55211;DHT22;41082;52.822;6.666;2024-03-02T15:36:02;12.60;99.90
55211;DHT22;41082;52.822;6.666;2024-03-02T15:38:28;12.60;99.90
55211;DHT22;41082;52.822;6.666;2024-03-02T15:40:54;12.60;99.90
55211;DHT22;41082;52.822;6.666;2024-03-02T15:43:20;12.50;99.90
55211;DHT22;41082;52.822;6.666;2024-03-02T15:45:45;12.50;99.90
55211;DHT22;41082;52.822;6.666;2024-03-02T15:48:11;12.40;99.90
55211;DHT22;41082;52.822;6.666;2024-03-02T15:50:37;12.40;99.90
55211;DHT22;41082;52.822;6.666;2024-03-02T15:53:03;12.40;99.90
55211;DHT22;41082;52.822;6.666;2024-03-02T15:55:32;12.30;99.90
55211;DHT22;41082;52.822;6.666;2024-03-02T15:57:58;12.20;99.90
55211;DHT22;41082;52.822;6.666;2024-03-02T16:00:24;12.20;99.90
55211;DHT22;41082;52.822;6.666;2024-03-02T16:02:49;12.10;99.90
55211;DHT22;41082;52.822;6.666;2024-03-02T16:05:15;12.10;99.90